Time,TemperatureF,DewpointF,PressureIn,WindDirection,WindDirectionDegrees,WindSpeedMPH,WindSpeedGustMPH,Humidity,HourlyPrecipIn,Conditions,Clouds,dailyrainin,SoftwareType,DateUTC
2013-11-13 00:04:00,22.4,19.0,30.72,North,355,1.0,2.0,88,0.00,,,0.00,weatherlink.com 1.10,2013-11-13 06:04:00,
2013-11-13 00:19:00,22.5,20.0,30.71,North,355,0.0,0.0,89,0.00,,,0.00,weatherlink.com 1.10,2013-11-13 06:19:00,
2013-11-13 00:34:00,22.5,20.0,30.70,North,355,0.0,0.0,89,0.00,,,0.00,weatherlink.com 1.10,2013-11-13 06:34:00,
2013-11-13 00:49:00,22.2,20.0,30.71,North,355,0.0,1.0,89,0.00,,,0.00,weatherlink.com 1.10,2013-11-13 06:49:00,
2013-11-13 01:04:00,22.1,19.0,30.71,North,355,0.0,0.0,89,0.00,,,0.00,weatherlink.com 1.10,2013-11-13 07:04:00,
2013-11-13 01:19:00,22.0,20.0,30.71,North,355,0.0,0.0,90,0.00,,,0.00,weatherlink.com 1.10,2013-11-13 07:19:00,
2013-11-13 01:34:00,21.8,19.0,30.71,North,355,0.0,0.0,90,0.00,,,0.00,weatherlink.com 1.10,2013-11-13 07:34:00,
2013-11-13 01:49:00,21.6,19.0,30.71,North,355,0.0,0.0,90,0.00,,,0.00,weatherlink.com 1.10,2013-11-13 07:49:00,
2013-11-13 02:04:00,21.1,19.0,30.71,North,355,0.0,1.0,90,0.00,,,0.00,weatherlink.com 1.10,2013-11-13 08:04:00,
2013-11-13 02:19:00,21.5,19.0,30.71,North,355,0.0,0.0,91,0.00,,,0.00,weatherlink.com 1.10,2013-11-13 08:19:00,
2013-11-13 02:34:00,21.8,20.0,30.72,North,355,0.0,0.0,91,0.00,,,0.00,weatherlink.com 1.10,2013-11-13 08:34:00,
2013-11-13 02:49:00,22.2,20.0,30.71,North,355,0.0,0.0,92,0.00,,,0.00,weatherlink.com 1.10,2013-11-13 08:49:00,
2013-11-13 03:04:00,22.1,20.0,30.71,North,355,0.0,0.0,91,0.00,,,0.00,weatherlink.com 1.10,2013-11-13 09:04:00,
2013-11-13 03:20:00,21.5,19.0,30.72,North,355,0.0,0.0,91,0.00,,,0.00,weatherlink.com 1.10,2013-11-13 09:20:00,
2013-11-13 03:35:00,21.0,19.0,30.72,North,355,0.0,0.0,91,0.00,,,0.00,weatherlink.com 1.10,2013-11-13 09:35:00,
2013-11-13 03:50:00,20.8,19.0,30.72,North,355,0.0,0.0,92,0.00,,,0.00,weatherlink.com 1.10,2013-11-13 09:50:00,
2013-11-13 04:05:00,20.9,19.0,30.72,North,355,0.0,0.0,92,0.00,,,0.00,weatherlink.com 1.10,2013-11-13 10:05:00,
2013-11-13 04:20:00,20.7,19.0,30.72,North,355,0.0,0.0,92,0.00,,,0.00,weatherlink.com 1.10,2013-11-13 10:20:00,
2013-11-13 04:35:00,20.8,19.0,30.72,North,355,0.0,0.0,92,0.00,,,0.00,weatherlink.com 1.10,2013-11-13 10:35:00,
2013-11-13 04:50:00,20.7,19.0,30.72,North,355,0.0,0.0,92,0.00,,,0.00,weatherlink.com 1.10,2013-11-13 10:50:00,
2013-11-13 05:05:00,20.6,19.0,30.72,North,355,1.0,2.0,92,0.00,,,0.00,weatherlink.com 1.10,2013-11-13 11:05:00,
2013-11-13 05:20:00,20.2,18.0,30.72,North,355,0.0,0.0,92,0.00,,,0.00,weatherlink.com 1.10,2013-11-13 11:20:00,
2013-11-13 05:35:00,20.0,18.0,30.72,North,355,0.0,0.0,92,0.00,,,0.00,weatherlink.com 1.10,2013-11-13 11:35:00,
2013-11-13 05:50:00,20.1,18.0,30.72,North,355,0.0,0.0,92,0.00,,,0.00,weatherlink.com 1.10,2013-11-13 11:50:00,
2013-11-13 06:05:00,19.5,18.0,30.72,North,355,0.0,0.0,92,0.00,,,0.00,weatherlink.com 1.10,2013-11-13 12:05:00,
2013-11-13 06:20:00,18.9,17.0,30.72,North,355,0.0,0.0,91,0.00,,,0.00,weatherlink.com 1.10,2013-11-13 12:20:00,
2013-11-13 06:35:00,18.6,17.0,30.72,North,355,0.0,0.0,92,0.00,,,0.00,weatherlink.com 1.10,2013-11-13 12:35:00,
2013-11-13 06:50:00,19.3,18.0,30.72,North,355,1.0,2.0,93,0.00,,,0.00,weatherlink.com 1.10,2013-11-13 12:50:00,
2013-11-13 07:05:00,19.7,18.0,30.73,North,355,0.0,1.0,92,0.00,,,0.00,weatherlink.com 1.10,2013-11-13 13:05:00,
2013-11-13 07:20:00,20.3,19.0,30.73,North,355,0.0,1.0,93,0.00,,,0.00,weatherlink.com 1.10,2013-11-13 13:20:00,
2013-11-13 07:35:00,21.5,20.0,30.74,North,355,0.0,0.0,93,0.00,,,0.00,weatherlink.com 1.10,2013-11-13 13:35:00,
2013-11-13 07:50:00,22.1,20.0,30.74,North,355,0.0,0.0,93,0.00,,,0.00,weatherlink.com 1.10,2013-11-13 13:50:00,
2013-11-13 08:05:00,24.9,24.0,30.74,North,355,0.0,2.0,94,0.00,,,0.00,weatherlink.com 1.10,2013-11-13 14:05:00,
2013-11-13 08:20:00,28.0,26.0,30.73,North,355,2.0,3.0,93,0.00,,,0.00,weatherlink.com 1.10,2013-11-13 14:20:00,
2013-11-13 08:35:00,29.3,26.0,30.73,SSE,163,2.0,5.0,86,0.00,,,0.00,weatherlink.com 1.10,2013-11-13 14:35:00,
2013-11-13 08:50:00,30.9,26.0,30.72,South,169,5.0,7.0,82,0.00,,,0.00,weatherlink.com 1.10,2013-11-13 14:50:00,
2013-11-13 09:05:00,31.7,26.0,30.72,South,186,7.0,9.0,79,0.00,,,0.00,weatherlink.com 1.10,2013-11-13 15:05:00,
2013-11-13 09:20:00,32.1,26.0,30.72,South,172,7.0,11.0,77,0.00,,,0.00,weatherlink.com 1.10,2013-11-13 15:20:00,
2013-11-13 09:35:00,32.4,25.0,30.72,South,178,5.0,9.0,75,0.00,,,0.00,weatherlink.com 1.10,2013-11-13 15:35:00,
2013-11-13 09:50:00,33.0,25.0,30.71,SSW,194,5.0,10.0,71,0.00,,,0.00,weatherlink.com 1.10,2013-11-13 15:50:00,
2013-11-13 10:05:00,33.6,24.0,30.70,South,178,7.0,9.0,69,0.00,,,0.00,weatherlink.com 1.10,2013-11-13 16:05:00,
2013-11-13 10:20:00,34.6,24.0,30.70,SE,139,3.0,9.0,65,0.00,,,0.00,weatherlink.com 1.10,2013-11-13 16:20:00,
2013-11-13 10:35:00,35.7,24.0,30.69,SSW,198,4.0,9.0,62,0.00,,,0.00,weatherlink.com 1.10,2013-11-13 16:35:00,
2013-11-13 10:51:00,36.5,24.0,30.68,South,186,3.0,7.0,60,0.00,,,0.00,weatherlink.com 1.10,2013-11-13 16:51:00,
2013-11-13 11:06:00,36.9,23.0,30.67,SSE,162,6.0,10.0,57,0.00,,,0.00,weatherlink.com 1.10,2013-11-13 17:06:00,
2013-11-13 11:21:00,37.7,24.0,30.66,South,169,1.0,11.0,57,0.00,,,0.00,weatherlink.com 1.10,2013-11-13 17:21:00,
2013-11-13 11:36:00,38.4,21.0,30.65,SW,227,4.0,8.0,49,0.00,,,0.00,weatherlink.com 1.10,2013-11-13 17:36:00,
2013-11-13 11:51:00,39.5,22.0,30.64,South,170,4.0,10.0,50,0.00,,,0.00,weatherlink.com 1.10,2013-11-13 17:51:00,
2013-11-13 12:06:00,40.1,22.0,30.63,SW,216,4.0,8.0,48,0.00,,,0.00,weatherlink.com 1.10,2013-11-13 18:06:00,
2013-11-13 12:21:00,40.7,21.0,30.61,South,183,1.0,10.0,45,0.00,,,0.00,weatherlink.com 1.10,2013-11-13 18:21:00,
2013-11-13 12:36:00,40.7,21.0,30.60,SSW,197,3.0,10.0,45,0.00,,,0.00,weatherlink.com 1.10,2013-11-13 18:36:00,
2013-11-13 12:51:00,41.8,20.0,30.59,South,190,4.0,8.0,42,0.00,,,0.00,weatherlink.com 1.10,2013-11-13 18:51:00,
2013-11-13 13:06:00,41.8,20.0,30.59,SSW,195,3.0,10.0,41,0.00,,,0.00,weatherlink.com 1.10,2013-11-13 19:06:00,
2013-11-13 13:21:00,42.2,20.0,30.57,SSW,198,7.0,10.0,41,0.00,,,0.00,weatherlink.com 1.10,2013-11-13 19:21:00,
2013-11-13 13:36:00,42.8,19.0,30.56,SSE,166,6.0,11.0,39,0.00,,,0.00,weatherlink.com 1.10,2013-11-13 19:36:00,
2013-11-13 13:51:00,43.4,19.0,30.56,SW,232,3.0,8.0,38,0.00,,,0.00,weatherlink.com 1.10,2013-11-13 19:51:00,
2013-11-13 14:06:00,43.4,20.0,30.55,SE,144,6.0,9.0,39,0.00,,,0.00,weatherlink.com 1.10,2013-11-13 20:06:00,
2013-11-13 14:21:00,43.7,19.0,30.54,SSW,192,4.0,8.0,38,0.00,,,0.00,weatherlink.com 1.10,2013-11-13 20:21:00,
2013-11-13 14:36:00,44.0,20.0,30.54,South,180,8.0,9.0,38,0.00,,,0.00,weatherlink.com 1.10,2013-11-13 20:36:00,
2013-11-13 14:51:00,44.2,19.0,30.52,South,180,4.0,10.0,36,0.00,,,0.00,weatherlink.com 1.10,2013-11-13 20:51:00,
2013-11-13 15:07:00,44.5,18.0,30.52,SSW,198,3.0,10.0,35,0.00,,,0.00,weatherlink.com 1.10,2013-11-13 21:07:00,
2013-11-13 15:22:00,44.2,19.0,30.51,SSE,163,5.0,7.0,37,0.00,,,0.00,weatherlink.com 1.10,2013-11-13 21:22:00,
2013-11-13 15:38:00,44.6,18.0,30.51,SSW,194,5.0,7.0,35,0.00,,,0.00,weatherlink.com 1.10,2013-11-13 21:38:00,
2013-11-13 15:52:00,44.2,19.0,30.50,SSE,162,5.0,8.0,36,0.00,,,0.00,weatherlink.com 1.10,2013-11-13 21:52:00,
2013-11-13 16:07:00,43.4,19.0,30.50,South,180,7.0,9.0,38,0.00,,,0.00,weatherlink.com 1.10,2013-11-13 22:07:00,
2013-11-13 16:22:00,42.2,20.0,30.49,South,169,5.0,6.0,41,0.00,,,0.00,weatherlink.com 1.10,2013-11-13 22:22:00,
2013-11-13 16:37:00,40.7,20.0,30.49,SSE,168,2.0,5.0,44,0.00,,,0.00,weatherlink.com 1.10,2013-11-13 22:37:00,
2013-11-13 16:52:00,39.2,20.0,30.49,SSE,168,4.0,4.0,46,0.00,,,0.00,weatherlink.com 1.10,2013-11-13 22:52:00,
2013-11-13 17:07:00,38.4,20.0,30.49,SSE,168,3.0,4.0,48,0.00,,,0.00,weatherlink.com 1.10,2013-11-13 23:07:00,
2013-11-13 17:22:00,37.5,20.0,30.49,SSE,168,2.0,4.0,50,0.00,,,0.00,weatherlink.com 1.10,2013-11-13 23:22:00,
2013-11-13 17:37:00,37.0,21.0,30.48,SSE,168,2.0,3.0,52,0.00,,,0.00,weatherlink.com 1.10,2013-11-13 23:37:00,
2013-11-13 17:52:00,36.8,20.0,30.48,SSE,168,2.0,5.0,52,0.00,,,0.00,weatherlink.com 1.10,2013-11-13 23:52:00,
2013-11-13 18:07:00,35.9,21.0,30.48,SSE,168,3.0,4.0,55,0.00,,,0.00,weatherlink.com 1.10,2013-11-14 00:07:00,
2013-11-13 18:22:00,35.3,21.0,30.48,SSE,168,1.0,3.0,56,0.00,,,0.00,weatherlink.com 1.10,2013-11-14 00:22:00,
2013-11-13 18:37:00,35.2,21.0,30.48,SSE,168,2.0,4.0,57,0.00,,,0.00,weatherlink.com 1.10,2013-11-14 00:37:00,
2013-11-13 18:52:00,35.3,21.0,30.47,SSE,168,2.0,3.0,56,0.00,,,0.00,weatherlink.com 1.10,2013-11-14 00:52:00,
2013-11-13 19:07:00,35.1,21.0,30.47,SSE,168,2.0,4.0,58,0.00,,,0.00,weatherlink.com 1.10,2013-11-14 01:07:00,
2013-11-13 19:22:00,34.9,22.0,30.47,SSE,168,1.0,5.0,59,0.00,,,0.00,weatherlink.com 1.10,2013-11-14 01:22:00,
2013-11-13 19:37:00,34.4,22.0,30.46,SSE,168,2.0,4.0,60,0.00,,,0.00,weatherlink.com 1.10,2013-11-14 01:37:00,
2013-11-13 19:52:00,34.6,22.0,30.46,SSE,168,1.0,4.0,60,0.00,,,0.00,weatherlink.com 1.10,2013-11-14 01:52:00,
2013-11-13 20:07:00,34.4,22.0,30.46,SSE,168,2.0,4.0,60,0.00,,,0.00,weatherlink.com 1.10,2013-11-14 02:07:00,
2013-11-13 20:22:00,35.2,22.0,30.46,SSW,198,3.0,7.0,59,0.00,,,0.00,weatherlink.com 1.10,2013-11-14 02:22:00,
2013-11-13 20:37:00,35.5,22.0,30.45,South,181,3.0,7.0,59,0.00,,,0.00,weatherlink.com 1.10,2013-11-14 02:37:00,
2013-11-13 20:52:00,34.2,23.0,30.45,South,171,4.0,5.0,63,0.00,,,0.00,weatherlink.com 1.10,2013-11-14 02:52:00,
2013-11-13 21:07:00,33.5,23.0,30.44,South,171,1.0,5.0,65,0.00,,,0.00,weatherlink.com 1.10,2013-11-14 03:07:00,
2013-11-13 21:22:00,32.7,23.0,30.44,South,171,2.0,4.0,67,0.00,,,0.00,weatherlink.com 1.10,2013-11-14 03:22:00,
2013-11-13 21:37:00,32.3,23.0,30.44,South,171,1.0,3.0,68,0.00,,,0.00,weatherlink.com 1.10,2013-11-14 03:37:00,
2013-11-13 21:52:00,32.9,23.0,30.43,South,171,3.0,4.0,67,0.00,,,0.00,weatherlink.com 1.10,2013-11-14 03:52:00,
2013-11-13 22:07:00,32.8,23.0,30.43,South,171,3.0,4.0,67,0.00,,,0.00,weatherlink.com 1.10,2013-11-14 04:07:00,
2013-11-13 22:22:00,32.0,23.0,30.42,South,171,1.0,3.0,69,0.00,,,0.00,weatherlink.com 1.10,2013-11-14 04:22:00,
2013-11-13 22:37:00,31.0,23.0,30.42,South,171,2.0,4.0,72,0.00,,,0.00,weatherlink.com 1.10,2013-11-14 04:37:00,
2013-11-13 22:52:00,30.2,23.0,30.41,South,171,0.0,3.0,74,0.00,,,0.00,weatherlink.com 1.10,2013-11-14 04:52:00,
2013-11-13 23:07:00,30.9,23.0,30.41,South,171,3.0,6.0,73,0.00,,,0.00,weatherlink.com 1.10,2013-11-14 05:07:00,
2013-11-13 23:22:00,30.5,23.0,30.41,South,171,2.0,4.0,74,0.00,,,0.00,weatherlink.com 1.10,2013-11-14 05:22:00,
2013-11-13 23:37:00,31.2,23.0,30.41,South,171,2.0,3.0,72,0.00,,,0.00,weatherlink.com 1.10,2013-11-14 05:37:00,
2013-11-13 23:52:00,31.6,24.0,30.40,South,171,2.0,3.0,72,0.00,,,0.00,weatherlink.com 1.10,2013-11-14 05:52:00,